sensor_id;sensor_type;location;lat;lon;timestamp;P1;durP1;ratioP1;P2;durP2;ratioP2
6858;SDS011;3468;42.824;23.240;2024-02-28T00:00:23;19.30;;;10.97;;
6858;SDS011;3468;42.824;23.240;2024-02-28T00:02:50;19.20;;;10.70;;
6858;SDS011;3468;42.824;23.240;2024-02-28T00:05:17;25.23;;;11.63;;
6858;SDS011;3468;42.824;23.240;2024-02-28T00:07:43;23.67;;;11.03;;
6858;SDS011;3468;42.824;23.240;2024-02-28T00:10:12;21.57;;;11.13;;
6858;SDS011;3468;42.824;23.240;2024-02-28T00:12:39;23.03;;;11.70;;
6858;SDS011;3468;42.824;23.240;2024-02-28T00:15:06;27.87;;;11.13;;
6858;SDS011;3468;42.824;23.240;2024-02-28T00:17:38;24.30;;;12.07;;
6858;SDS011;3468;42.824;23.240;2024-02-28T00:20:06;23.63;;;11.40;;
6858;SDS011;3468;42.824;23.240;2024-02-28T00:22:33;20.53;;;11.03;;
6858;SDS011;3468;42.824;23.240;2024-02-28T00:25:01;26.93;;;12.70;;
6858;SDS011;3468;42.824;23.240;2024-02-28T00:27:29;22.63;;;11.40;;
6858;SDS011;3468;42.824;23.240;2024-02-28T00:29:56;27.00;;;10.67;;
6858;SDS011;3468;42.824;23.240;2024-02-28T00:32:22;21.20;;;10.97;;
6858;SDS011;3468;42.824;23.240;2024-02-28T00:34:49;26.97;;;12.07;;
6858;SDS011;3468;42.824;23.240;2024-02-28T00:37:16;25.13;;;11.03;;
6858;SDS011;3468;42.824;23.240;2024-02-28T00:39:43;27.80;;;11.63;;
6858;SDS011;3468;42.824;23.240;2024-02-28T00:42:09;21.73;;;12.03;;
6858;SDS011;3468;42.824;23.240;2024-02-28T00:44:38;21.57;;;11.13;;
6858;SDS011;3468;42.824;23.240;2024-02-28T00:47:07;22.83;;;11.80;;
6858;SDS011;3468;42.824;23.240;2024-02-28T00:49:34;25.60;;;12.77;;
6858;SDS011;3468;42.824;23.240;2024-02-28T00:52:01;24.67;;;12.87;;
6858;SDS011;3468;42.824;23.240;2024-02-28T00:54:27;24.67;;;13.10;;
6858;SDS011;3468;42.824;23.240;2024-02-28T00:56:54;25.00;;;12.80;;
6858;SDS011;3468;42.824;23.240;2024-02-28T00:59:21;24.70;;;11.73;;
6858;SDS011;3468;42.824;23.240;2024-02-28T01:01:49;21.27;;;11.87;;
6858;SDS011;3468;42.824;23.240;2024-02-28T01:04:16;22.50;;;12.33;;
6858;SDS011;3468;42.824;23.240;2024-02-28T01:06:43;27.83;;;13.20;;
6858;SDS011;3468;42.824;23.240;2024-02-28T01:09:10;25.70;;;12.90;;
6858;SDS011;3468;42.824;23.240;2024-02-28T01:11:36;25.00;;;12.80;;
6858;SDS011;3468;42.824;23.240;2024-02-28T01:14:03;22.30;;;11.90;;
6858;SDS011;3468;42.824;23.240;2024-02-28T01:16:30;25.03;;;12.03;;
6858;SDS011;3468;42.824;23.240;2024-02-28T01:18:58;26.50;;;13.20;;
6858;SDS011;3468;42.824;23.240;2024-02-28T01:21:25;23.97;;;11.87;;
6858;SDS011;3468;42.824;23.240;2024-02-28T01:23:51;26.93;;;12.30;;
6858;SDS011;3468;42.824;23.240;2024-02-28T01:26:18;22.70;;;12.17;;
6858;SDS011;3468;42.824;23.240;2024-02-28T01:28:46;24.30;;;12.50;;
6858;SDS011;3468;42.824;23.240;2024-02-28T01:31:13;25.57;;;12.23;;
6858;SDS011;3468;42.824;23.240;2024-02-28T01:33:40;33.13;;;12.97;;
6858;SDS011;3468;42.824;23.240;2024-02-28T01:36:08;25.43;;;12.87;;
6858;SDS011;3468;42.824;23.240;2024-02-28T01:38:37;24.23;;;11.87;;
6858;SDS011;3468;42.824;23.240;2024-02-28T01:41:03;25.00;;;11.77;;
6858;SDS011;3468;42.824;23.240;2024-02-28T01:43:30;31.67;;;13.90;;
6858;SDS011;3468;42.824;23.240;2024-02-28T01:45:57;26.60;;;13.83;;
6858;SDS011;3468;42.824;23.240;2024-02-28T01:48:27;32.73;;;15.07;;
6858;SDS011;3468;42.824;23.240;2024-02-28T01:50:55;32.20;;;15.67;;
6858;SDS011;3468;42.824;23.240;2024-02-28T01:53:23;26.27;;;13.60;;
6858;SDS011;3468;42.824;23.240;2024-02-28T01:55:50;25.17;;;13.23;;
6858;SDS011;3468;42.824;23.240;2024-02-28T01:58:17;34.37;;;14.37;;
6858;SDS011;3468;42.824;23.240;2024-02-28T02:00:44;31.63;;;14.97;;
6858;SDS011;3468;42.824;23.240;2024-02-28T02:03:11;27.47;;;14.90;;
6858;SDS011;3468;42.824;23.240;2024-02-28T02:05:38;32.97;;;16.30;;
6858;SDS011;3468;42.824;23.240;2024-02-28T02:08:07;28.00;;;14.27;;
6858;SDS011;3468;42.824;23.240;2024-02-28T02:10:35;46.03;;;19.63;;
6858;SDS011;3468;42.824;23.240;2024-02-28T02:13:05;45.93;;;18.67;;
6858;SDS011;3468;42.824;23.240;2024-02-28T02:15:32;36.63;;;17.30;;
6858;SDS011;3468;42.824;23.240;2024-02-28T02:17:59;40.80;;;15.23;;
6858;SDS011;3468;42.824;23.240;2024-02-28T02:20:26;42.27;;;17.50;;
6858;SDS011;3468;42.824;23.240;2024-02-28T02:22:57;30.57;;;14.87;;
6858;SDS011;3468;42.824;23.240;2024-02-28T02:25:24;35.03;;;15.23;;
6858;SDS011;3468;42.824;23.240;2024-02-28T02:27:51;34.73;;;15.33;;
6858;SDS011;3468;42.824;23.240;2024-02-28T02:30:18;32.23;;;14.87;;
6858;SDS011;3468;42.824;23.240;2024-02-28T02:32:44;28.13;;;13.40;;
6858;SDS011;3468;42.824;23.240;2024-02-28T02:35:11;28.20;;;13.40;;
6858;SDS011;3468;42.824;23.240;2024-02-28T02:37:40;27.60;;;13.47;;
6858;SDS011;3468;42.824;23.240;2024-02-28T02:40:12;31.93;;;14.77;;
6858;SDS011;3468;42.824;23.240;2024-02-28T02:42:39;30.60;;;15.27;;
6858;SDS011;3468;42.824;23.240;2024-02-28T02:45:06;26.70;;;13.97;;
6858;SDS011;3468;42.824;23.240;2024-02-28T02:47:33;26.30;;;11.97;;
6858;SDS011;3468;42.824;23.240;2024-02-28T02:50:00;28.73;;;13.30;;
6858;SDS011;3468;42.824;23.240;2024-02-28T02:52:27;26.50;;;12.43;;
6858;SDS011;3468;42.824;23.240;2024-02-28T02:54:53;29.47;;;13.53;;
6858;SDS011;3468;42.824;23.240;2024-02-28T02:57:21;24.00;;;12.60;;
6858;SDS011;3468;42.824;23.240;2024-02-28T02:59:48;32.63;;;14.17;;
6858;SDS011;3468;42.824;23.240;2024-02-28T03:02:15;28.03;;;13.80;;
6858;SDS011;3468;42.824;23.240;2024-02-28T03:04:42;30.10;;;13.03;;
6858;SDS011;3468;42.824;23.240;2024-02-28T03:07:08;26.80;;;12.97;;
6858;SDS011;3468;42.824;23.240;2024-02-28T03:09:35;25.00;;;13.07;;
6858;SDS011;3468;42.824;23.240;2024-02-28T03:12:02;34.10;;;16.57;;
6858;SDS011;3468;42.824;23.240;2024-02-28T03:14:30;35.93;;;15.87;;
6858;SDS011;3468;42.824;23.240;2024-02-28T03:16:57;37.43;;;16.43;;
6858;SDS011;3468;42.824;23.240;2024-02-28T03:19:24;40.97;;;16.87;;
6858;SDS011;3468;42.824;23.240;2024-02-28T03:21:50;32.03;;;15.67;;
6858;SDS011;3468;42.824;23.240;2024-02-28T03:24:17;35.70;;;16.60;;
6858;SDS011;3468;42.824;23.240;2024-02-28T03:26:44;38.43;;;18.00;;
6858;SDS011;3468;42.824;23.240;2024-02-28T03:29:11;41.20;;;16.03;;
6858;SDS011;3468;42.824;23.240;2024-02-28T03:31:39;39.00;;;16.50;;
6858;SDS011;3468;42.824;23.240;2024-02-28T03:34:05;35.10;;;15.33;;
6858;SDS011;3468;42.824;23.240;2024-02-28T03:36:33;34.80;;;16.77;;
6858;SDS011;3468;42.824;23.240;2024-02-28T03:38:59;39.37;;;16.43;;
6858;SDS011;3468;42.824;23.240;2024-02-28T03:41:26;30.93;;;16.50;;
6858;SDS011;3468;42.824;23.240;2024-02-28T03:43:53;35.17;;;16.23;;
6858;SDS011;3468;42.824;23.240;2024-02-28T03:46:19;34.87;;;15.63;;
6858;SDS011;3468;42.824;23.240;2024-02-28T03:48:48;35.80;;;17.10;;
6858;SDS011;3468;42.824;23.240;2024-02-28T03:51:15;34.10;;;17.50;;
6858;SDS011;3468;42.824;23.240;2024-02-28T03:53:42;52.90;;;17.03;;
6858;SDS011;3468;42.824;23.240;2024-02-28T03:56:08;33.63;;;16.63;;
6858;SDS011;3468;42.824;23.240;2024-02-28T03:58:36;33.97;;;15.63;;
6858;SDS011;3468;42.824;23.240;2024-02-28T04:01:03;33.17;;;16.93;;
6858;SDS011;3468;42.824;23.240;2024-02-28T04:03:30;37.20;;;15.27;;
6858;SDS011;3468;42.824;23.240;2024-02-28T04:05:58;42.50;;;19.03;;
6858;SDS011;3468;42.824;23.240;2024-02-28T04:08:25;41.83;;;18.60;;
6858;SDS011;3468;42.824;23.240;2024-02-28T04:10:51;48.33;;;21.40;;
6858;SDS011;3468;42.824;23.240;2024-02-28T04:13:18;45.13;;;19.03;;
6858;SDS011;3468;42.824;23.240;2024-02-28T04:15:45;44.13;;;19.13;;
6858;SDS011;3468;42.824;23.240;2024-02-28T04:18:12;40.67;;;19.37;;
6858;SDS011;3468;42.824;23.240;2024-02-28T04:20:38;42.43;;;19.17;;
6858;SDS011;3468;42.824;23.240;2024-02-28T04:23:06;44.97;;;20.07;;
6858;SDS011;3468;42.824;23.240;2024-02-28T04:25:33;39.37;;;19.33;;
6858;SDS011;3468;42.824;23.240;2024-02-28T04:28:00;42.90;;;17.70;;
6858;SDS011;3468;42.824;23.240;2024-02-28T04:30:27;42.33;;;17.97;;
6858;SDS011;3468;42.824;23.240;2024-02-28T04:32:54;31.83;;;17.30;;
6858;SDS011;3468;42.824;23.240;2024-02-28T04:35:21;35.13;;;15.43;;
6858;SDS011;3468;42.824;23.240;2024-02-28T04:37:48;35.83;;;16.40;;
6858;SDS011;3468;42.824;23.240;2024-02-28T04:40:16;32.60;;;15.87;;
6858;SDS011;3468;42.824;23.240;2024-02-28T04:42:43;32.10;;;15.80;;
6858;SDS011;3468;42.824;23.240;2024-02-28T04:45:09;36.23;;;17.03;;
6858;SDS011;3468;42.824;23.240;2024-02-28T04:47:36;32.47;;;16.57;;
6858;SDS011;3468;42.824;23.240;2024-02-28T04:50:04;34.67;;;16.70;;
6858;SDS011;3468;42.824;23.240;2024-02-28T04:52:31;35.13;;;17.37;;
6858;SDS011;3468;42.824;23.240;2024-02-28T04:54:58;34.10;;;16.87;;
6858;SDS011;3468;42.824;23.240;2024-02-28T04:57:27;38.70;;;17.13;;
6858;SDS011;3468;42.824;23.240;2024-02-28T04:59:54;35.00;;;17.33;;
6858;SDS011;3468;42.824;23.240;2024-02-28T05:02:21;32.03;;;16.83;;
6858;SDS011;3468;42.824;23.240;2024-02-28T05:04:47;36.97;;;16.90;;
6858;SDS011;3468;42.824;23.240;2024-02-28T05:07:14;37.63;;;16.17;;
6858;SDS011;3468;42.824;23.240;2024-02-28T05:09:41;34.83;;;16.50;;
6858;SDS011;3468;42.824;23.240;2024-02-28T05:12:08;32.70;;;16.40;;
6858;SDS011;3468;42.824;23.240;2024-02-28T05:14:38;35.77;;;16.77;;
6858;SDS011;3468;42.824;23.240;2024-02-28T05:17:05;34.40;;;15.27;;
6858;SDS011;3468;42.824;23.240;2024-02-28T05:19:31;40.03;;;16.53;;
6858;SDS011;3468;42.824;23.240;2024-02-28T05:21:58;40.87;;;16.40;;
6858;SDS011;3468;42.824;23.240;2024-02-28T05:24:26;36.53;;;16.83;;
6858;SDS011;3468;42.824;23.240;2024-02-28T05:26:52;34.10;;;16.13;;
6858;SDS011;3468;42.824;23.240;2024-02-28T05:29:19;31.33;;;15.07;;
6858;SDS011;3468;42.824;23.240;2024-02-28T05:31:47;37.10;;;16.07;;
6858;SDS011;3468;42.824;23.240;2024-02-28T05:34:14;30.13;;;15.83;;
6858;SDS011;3468;42.824;23.240;2024-02-28T05:36:41;45.80;;;19.30;;
6858;SDS011;3468;42.824;23.240;2024-02-28T05:39:08;46.33;;;22.60;;
6858;SDS011;3468;42.824;23.240;2024-02-28T05:41:35;54.77;;;23.63;;
6858;SDS011;3468;42.824;23.240;2024-02-28T05:44:02;54.90;;;28.47;;
6858;SDS011;3468;42.824;23.240;2024-02-28T05:46:28;58.40;;;24.47;;
6858;SDS011;3468;42.824;23.240;2024-02-28T05:48:57;44.83;;;23.53;;
6858;SDS011;3468;42.824;23.240;2024-02-28T05:51:24;54.07;;;24.23;;
6858;SDS011;3468;42.824;23.240;2024-02-28T05:53:51;44.77;;;21.87;;
6858;SDS011;3468;42.824;23.240;2024-02-28T05:56:17;46.57;;;22.00;;
6858;SDS011;3468;42.824;23.240;2024-02-28T05:58:45;32.73;;;17.63;;
6858;SDS011;3468;42.824;23.240;2024-02-28T06:01:13;42.63;;;19.73;;
6858;SDS011;3468;42.824;23.240;2024-02-28T06:03:42;52.30;;;21.43;;
6858;SDS011;3468;42.824;23.240;2024-02-28T06:06:12;39.67;;;19.80;;
6858;SDS011;3468;42.824;23.240;2024-02-28T06:08:39;37.13;;;19.80;;
6858;SDS011;3468;42.824;23.240;2024-02-28T06:11:06;40.03;;;20.23;;
6858;SDS011;3468;42.824;23.240;2024-02-28T06:13:33;41.23;;;19.47;;
6858;SDS011;3468;42.824;23.240;2024-02-28T06:16:00;39.30;;;19.33;;
6858;SDS011;3468;42.824;23.240;2024-02-28T06:18:27;48.47;;;19.93;;
6858;SDS011;3468;42.824;23.240;2024-02-28T06:20:55;38.07;;;18.07;;
6858;SDS011;3468;42.824;23.240;2024-02-28T06:23:23;37.60;;;18.13;;
6858;SDS011;3468;42.824;23.240;2024-02-28T06:25:50;44.43;;;19.43;;
6858;SDS011;3468;42.824;23.240;2024-02-28T06:28:17;40.60;;;19.07;;
6858;SDS011;3468;42.824;23.240;2024-02-28T06:30:44;33.70;;;17.17;;
6858;SDS011;3468;42.824;23.240;2024-02-28T06:33:11;38.97;;;18.20;;
6858;SDS011;3468;42.824;23.240;2024-02-28T06:35:37;36.23;;;18.40;;
6858;SDS011;3468;42.824;23.240;2024-02-28T06:38:04;34.37;;;17.20;;
6858;SDS011;3468;42.824;23.240;2024-02-28T06:40:32;33.63;;;17.40;;
6858;SDS011;3468;42.824;23.240;2024-02-28T06:42:59;33.23;;;17.67;;
6858;SDS011;3468;42.824;23.240;2024-02-28T06:45:26;30.03;;;16.30;;
6858;SDS011;3468;42.824;23.240;2024-02-28T06:47:53;31.27;;;15.90;;
6858;SDS011;3468;42.824;23.240;2024-02-28T06:50:20;33.10;;;16.20;;
6858;SDS011;3468;42.824;23.240;2024-02-28T06:52:46;34.63;;;16.97;;
6858;SDS011;3468;42.824;23.240;2024-02-28T06:55:13;35.60;;;17.00;;
6858;SDS011;3468;42.824;23.240;2024-02-28T06:57:41;33.40;;;17.80;;
6858;SDS011;3468;42.824;23.240;2024-02-28T07:00:09;31.47;;;16.33;;
6858;SDS011;3468;42.824;23.240;2024-02-28T07:02:37;35.50;;;15.87;;
6858;SDS011;3468;42.824;23.240;2024-02-28T07:05:04;34.43;;;15.10;;
6858;SDS011;3468;42.824;23.240;2024-02-28T07:07:31;26.83;;;14.93;;
6858;SDS011;3468;42.824;23.240;2024-02-28T07:09:58;34.57;;;15.90;;
6858;SDS011;3468;42.824;23.240;2024-02-28T07:12:25;32.37;;;15.20;;
6858;SDS011;3468;42.824;23.240;2024-02-28T07:14:53;33.70;;;15.07;;
6858;SDS011;3468;42.824;23.240;2024-02-28T07:17:20;28.83;;;14.57;;
6858;SDS011;3468;42.824;23.240;2024-02-28T07:19:47;30.87;;;14.90;;
6858;SDS011;3468;42.824;23.240;2024-02-28T07:22:14;28.70;;;14.93;;
6858;SDS011;3468;42.824;23.240;2024-02-28T07:24:40;35.40;;;14.60;;
6858;SDS011;3468;42.824;23.240;2024-02-28T07:27:07;31.57;;;14.43;;
6858;SDS011;3468;42.824;23.240;2024-02-28T07:29:34;31.80;;;16.27;;
6858;SDS011;3468;42.824;23.240;2024-02-28T07:32:04;34.03;;;16.13;;
6858;SDS011;3468;42.824;23.240;2024-02-28T07:34:31;31.20;;;14.40;;
6858;SDS011;3468;42.824;23.240;2024-02-28T07:36:59;28.80;;;15.13;;
6858;SDS011;3468;42.824;23.240;2024-02-28T07:39:25;31.77;;;14.73;;
6858;SDS011;3468;42.824;23.240;2024-02-28T07:41:52;30.93;;;15.03;;
6858;SDS011;3468;42.824;23.240;2024-02-28T07:44:19;31.00;;;16.73;;
6858;SDS011;3468;42.824;23.240;2024-02-28T07:46:46;33.53;;;17.20;;
6858;SDS011;3468;42.824;23.240;2024-02-28T07:49:14;39.27;;;17.67;;
6858;SDS011;3468;42.824;23.240;2024-02-28T07:51:41;29.43;;;15.67;;
6858;SDS011;3468;42.824;23.240;2024-02-28T07:54:08;32.70;;;13.87;;
6858;SDS011;3468;42.824;23.240;2024-02-28T07:56:34;30.27;;;15.33;;
6858;SDS011;3468;42.824;23.240;2024-02-28T07:59:01;28.03;;;15.73;;
6858;SDS011;3468;42.824;23.240;2024-02-28T08:01:28;25.90;;;14.57;;
6858;SDS011;3468;42.824;23.240;2024-02-28T08:03:55;32.10;;;14.43;;
6858;SDS011;3468;42.824;23.240;2024-02-28T08:06:23;26.30;;;13.50;;
6858;SDS011;3468;42.824;23.240;2024-02-28T08:08:50;33.83;;;17.90;;
6858;SDS011;3468;42.824;23.240;2024-02-28T08:11:17;33.20;;;17.33;;
6858;SDS011;3468;42.824;23.240;2024-02-28T08:13:44;35.90;;;18.37;;
6858;SDS011;3468;42.824;23.240;2024-02-28T08:16:11;31.93;;;15.63;;
6858;SDS011;3468;42.824;23.240;2024-02-28T08:18:37;30.67;;;17.17;;
6858;SDS011;3468;42.824;23.240;2024-02-28T08:21:04;28.60;;;15.57;;
6858;SDS011;3468;42.824;23.240;2024-02-28T08:23:32;36.93;;;16.50;;
6858;SDS011;3468;42.824;23.240;2024-02-28T08:25:59;29.03;;;15.47;;
6858;SDS011;3468;42.824;23.240;2024-02-28T08:28:25;28.40;;;14.73;;
6858;SDS011;3468;42.824;23.240;2024-02-28T08:30:52;35.53;;;15.03;;
6858;SDS011;3468;42.824;23.240;2024-02-28T08:33:19;30.13;;;14.90;;
6858;SDS011;3468;42.824;23.240;2024-02-28T08:35:46;26.77;;;13.80;;
6858;SDS011;3468;42.824;23.240;2024-02-28T08:38:15;25.80;;;13.80;;
6858;SDS011;3468;42.824;23.240;2024-02-28T08:40:43;36.00;;;16.23;;
6858;SDS011;3468;42.824;23.240;2024-02-28T08:43:10;34.17;;;15.33;;
6858;SDS011;3468;42.824;23.240;2024-02-28T08:45:37;32.93;;;14.87;;
6858;SDS011;3468;42.824;23.240;2024-02-28T08:48:04;32.60;;;14.23;;
6858;SDS011;3468;42.824;23.240;2024-02-28T08:50:31;26.20;;;13.77;;
6858;SDS011;3468;42.824;23.240;2024-02-28T08:52:57;29.33;;;15.23;;
6858;SDS011;3468;42.824;23.240;2024-02-28T08:55:24;27.63;;;14.30;;
6858;SDS011;3468;42.824;23.240;2024-02-28T08:57:52;30.53;;;14.37;;
6858;SDS011;3468;42.824;23.240;2024-02-28T09:00:19;27.53;;;12.67;;
6858;SDS011;3468;42.824;23.240;2024-02-28T09:02:47;28.07;;;14.63;;
6858;SDS011;3468;42.824;23.240;2024-02-28T09:05:13;34.17;;;14.80;;
6858;SDS011;3468;42.824;23.240;2024-02-28T09:07:40;25.90;;;13.03;;
6858;SDS011;3468;42.824;23.240;2024-02-28T09:10:07;31.00;;;13.20;;
6858;SDS011;3468;42.824;23.240;2024-02-28T09:12:34;25.87;;;13.30;;
6858;SDS011;3468;42.824;23.240;2024-02-28T09:15:02;31.37;;;13.87;;
6858;SDS011;3468;42.824;23.240;2024-02-28T09:17:30;24.63;;;12.90;;
6858;SDS011;3468;42.824;23.240;2024-02-28T09:19:56;22.10;;;12.23;;
6858;SDS011;3468;42.824;23.240;2024-02-28T09:22:25;25.47;;;12.57;;
6858;SDS011;3468;42.824;23.240;2024-02-28T09:24:52;24.07;;;11.33;;
6858;SDS011;3468;42.824;23.240;2024-02-28T09:27:19;27.03;;;13.43;;
6858;SDS011;3468;42.824;23.240;2024-02-28T09:29:46;24.47;;;13.07;;
6858;SDS011;3468;42.824;23.240;2024-02-28T09:32:14;25.03;;;12.87;;
6858;SDS011;3468;42.824;23.240;2024-02-28T09:34:40;24.50;;;11.97;;
6858;SDS011;3468;42.824;23.240;2024-02-28T09:37:07;29.60;;;13.33;;
6858;SDS011;3468;42.824;23.240;2024-02-28T09:39:34;27.07;;;14.17;;
6858;SDS011;3468;42.824;23.240;2024-02-28T09:42:00;27.40;;;14.03;;
6858;SDS011;3468;42.824;23.240;2024-02-28T09:44:27;30.67;;;12.30;;
6858;SDS011;3468;42.824;23.240;2024-02-28T09:46:55;25.70;;;13.57;;
6858;SDS011;3468;42.824;23.240;2024-02-28T09:49:24;28.23;;;13.83;;
6858;SDS011;3468;42.824;23.240;2024-02-28T09:51:52;26.30;;;12.93;;
6858;SDS011;3468;42.824;23.240;2024-02-28T09:54:20;26.93;;;12.50;;
6858;SDS011;3468;42.824;23.240;2024-02-28T09:56:47;29.97;;;11.90;;
6858;SDS011;3468;42.824;23.240;2024-02-28T09:59:14;27.37;;;12.07;;
6858;SDS011;3468;42.824;23.240;2024-02-28T10:01:43;25.80;;;12.07;;
6858;SDS011;3468;42.824;23.240;2024-02-28T10:04:13;20.20;;;11.53;;
6858;SDS011;3468;42.824;23.240;2024-02-28T10:06:41;23.57;;;10.57;;
6858;SDS011;3468;42.824;23.240;2024-02-28T10:09:08;28.87;;;12.17;;
6858;SDS011;3468;42.824;23.240;2024-02-28T10:11:35;24.40;;;12.93;;
6858;SDS011;3468;42.824;23.240;2024-02-28T10:14:03;25.90;;;11.80;;
6858;SDS011;3468;42.824;23.240;2024-02-28T10:16:29;16.57;;;8.37;;
6858;SDS011;3468;42.824;23.240;2024-02-28T10:18:56;24.77;;;10.97;;
6858;SDS011;3468;42.824;23.240;2024-02-28T10:21:23;25.30;;;11.40;;
6858;SDS011;3468;42.824;23.240;2024-02-28T10:23:52;18.30;;;9.93;;
6858;SDS011;3468;42.824;23.240;2024-02-28T10:26:19;16.77;;;8.17;;
6858;SDS011;3468;42.824;23.240;2024-02-28T10:28:46;19.57;;;7.77;;
6858;SDS011;3468;42.824;23.240;2024-02-28T10:31:12;34.87;;;9.30;;
6858;SDS011;3468;42.824;23.240;2024-02-28T10:33:41;17.40;;;7.73;;
6858;SDS011;3468;42.824;23.240;2024-02-28T10:36:08;18.50;;;8.37;;
6858;SDS011;3468;42.824;23.240;2024-02-28T10:38:36;19.60;;;8.73;;
6858;SDS011;3468;42.824;23.240;2024-02-28T10:41:05;15.30;;;7.87;;
6858;SDS011;3468;42.824;23.240;2024-02-28T10:43:32;15.03;;;7.80;;
6858;SDS011;3468;42.824;23.240;2024-02-28T10:46:00;19.10;;;8.27;;
6858;SDS011;3468;42.824;23.240;2024-02-28T10:48:27;16.27;;;7.97;;
6858;SDS011;3468;42.824;23.240;2024-02-28T10:50:54;18.57;;;7.20;;
6858;SDS011;3468;42.824;23.240;2024-02-28T10:53:21;15.53;;;7.97;;
6858;SDS011;3468;42.824;23.240;2024-02-28T10:55:50;17.93;;;7.83;;
6858;SDS011;3468;42.824;23.240;2024-02-28T10:58:22;15.77;;;7.30;;
6858;SDS011;3468;42.824;23.240;2024-02-28T11:00:51;12.37;;;7.30;;
6858;SDS011;3468;42.824;23.240;2024-02-28T11:03:18;14.90;;;7.70;;
6858;SDS011;3468;42.824;23.240;2024-02-28T11:05:45;11.75;;;6.97;;
6858;SDS011;3468;42.824;23.240;2024-02-28T11:08:19;15.32;;;7.82;;
6858;SDS011;3468;42.824;23.240;2024-02-28T11:10:53;19.80;;;8.00;;
6858;SDS011;3468;42.824;23.240;2024-02-28T11:13:23;14.95;;;7.65;;
6858;SDS011;3468;42.824;23.240;2024-02-28T11:15:50;13.13;;;6.97;;
6858;SDS011;3468;42.824;23.240;2024-02-28T11:18:17;13.07;;;6.50;;
6858;SDS011;3468;42.824;23.240;2024-02-28T11:20:44;10.83;;;6.60;;
6858;SDS011;3468;42.824;23.240;2024-02-28T11:23:13;15.87;;;7.23;;
6858;SDS011;3468;42.824;23.240;2024-02-28T11:25:41;14.73;;;7.77;;
6858;SDS011;3468;42.824;23.240;2024-02-28T11:28:08;12.45;;;7.65;;
6858;SDS011;3468;42.824;23.240;2024-02-28T11:30:37;14.80;;;6.25;;
6858;SDS011;3468;42.824;23.240;2024-02-28T11:33:03;10.95;;;6.43;;
6858;SDS011;3468;42.824;23.240;2024-02-28T11:35:33;14.98;;;7.00;;
6858;SDS011;3468;42.824;23.240;2024-02-28T11:38:00;33.42;;;17.30;;
6858;SDS011;3468;42.824;23.240;2024-02-28T11:40:27;15.00;;;7.05;;
6858;SDS011;3468;42.824;23.240;2024-02-28T11:42:54;14.13;;;6.72;;
6858;SDS011;3468;42.824;23.240;2024-02-28T11:45:21;14.48;;;5.43;;
6858;SDS011;3468;42.824;23.240;2024-02-28T11:47:49;11.70;;;5.65;;
6858;SDS011;3468;42.824;23.240;2024-02-28T11:50:16;11.70;;;6.60;;
6858;SDS011;3468;42.824;23.240;2024-02-28T11:52:44;13.02;;;6.10;;
6858;SDS011;3468;42.824;23.240;2024-02-28T11:55:11;11.82;;;5.57;;
6858;SDS011;3468;42.824;23.240;2024-02-28T11:57:37;8.80;;;5.70;;
6858;SDS011;3468;42.824;23.240;2024-02-28T12:00:05;14.70;;;5.65;;
6858;SDS011;3468;42.824;23.240;2024-02-28T12:02:34;11.80;;;5.45;;
6858;SDS011;3468;42.824;23.240;2024-02-28T12:05:02;17.58;;;9.25;;
6858;SDS011;3468;42.824;23.240;2024-02-28T12:07:30;12.20;;;5.93;;
6858;SDS011;3468;42.824;23.240;2024-02-28T12:09:57;11.13;;;5.60;;
6858;SDS011;3468;42.824;23.240;2024-02-28T12:12:24;11.27;;;5.80;;
6858;SDS011;3468;42.824;23.240;2024-02-28T12:14:51;20.02;;;5.38;;
6858;SDS011;3468;42.824;23.240;2024-02-28T12:17:16;7.50;;;4.53;;
6858;SDS011;3468;42.824;23.240;2024-02-28T12:19:43;11.98;;;4.57;;
6858;SDS011;3468;42.824;23.240;2024-02-28T12:22:12;13.30;;;4.78;;
6858;SDS011;3468;42.824;23.240;2024-02-28T12:24:38;8.48;;;4.72;;
6858;SDS011;3468;42.824;23.240;2024-02-28T12:27:05;12.38;;;4.60;;
6858;SDS011;3468;42.824;23.240;2024-02-28T12:29:32;11.13;;;4.82;;
6858;SDS011;3468;42.824;23.240;2024-02-28T12:31:58;9.80;;;5.07;;
6858;SDS011;3468;42.824;23.240;2024-02-28T12:34:25;22.77;;;5.18;;
6858;SDS011;3468;42.824;23.240;2024-02-28T12:36:52;9.48;;;5.50;;
6858;SDS011;3468;42.824;23.240;2024-02-28T12:39:21;9.75;;;5.03;;
6858;SDS011;3468;42.824;23.240;2024-02-28T12:41:47;13.55;;;5.30;;
6858;SDS011;3468;42.824;23.240;2024-02-28T12:44:14;8.68;;;4.82;;
6858;SDS011;3468;42.824;23.240;2024-02-28T12:46:41;7.95;;;4.28;;
6858;SDS011;3468;42.824;23.240;2024-02-28T12:49:08;8.13;;;4.80;;
6858;SDS011;3468;42.824;23.240;2024-02-28T12:51:36;11.20;;;4.70;;
6858;SDS011;3468;42.824;23.240;2024-02-28T12:54:04;7.95;;;4.05;;
6858;SDS011;3468;42.824;23.240;2024-02-28T12:56:32;9.50;;;4.65;;
6858;SDS011;3468;42.824;23.240;2024-02-28T12:58:59;10.02;;;4.38;;
6858;SDS011;3468;42.824;23.240;2024-02-28T13:01:26;11.55;;;4.80;;
6858;SDS011;3468;42.824;23.240;2024-02-28T13:03:53;9.68;;;4.78;;
6858;SDS011;3468;42.824;23.240;2024-02-28T13:06:20;11.23;;;5.28;;
6858;SDS011;3468;42.824;23.240;2024-02-28T13:08:46;9.98;;;4.72;;
6858;SDS011;3468;42.824;23.240;2024-02-28T13:11:16;11.38;;;4.10;;
6858;SDS011;3468;42.824;23.240;2024-02-28T13:13:46;11.93;;;4.97;;
6858;SDS011;3468;42.824;23.240;2024-02-28T13:16:12;7.20;;;4.53;;
6858;SDS011;3468;42.824;23.240;2024-02-28T13:18:39;12.68;;;4.55;;
6858;SDS011;3468;42.824;23.240;2024-02-28T13:21:06;6.55;;;3.92;;
6858;SDS011;3468;42.824;23.240;2024-02-28T13:23:33;7.65;;;4.30;;
6858;SDS011;3468;42.824;23.240;2024-02-28T13:26:00;7.15;;;3.97;;
6858;SDS011;3468;42.824;23.240;2024-02-28T13:28:26;9.90;;;3.80;;
6858;SDS011;3468;42.824;23.240;2024-02-28T13:30:57;8.32;;;4.50;;
6858;SDS011;3468;42.824;23.240;2024-02-28T13:33:24;9.20;;;3.50;;
6858;SDS011;3468;42.824;23.240;2024-02-28T13:35:51;5.28;;;3.53;;
6858;SDS011;3468;42.824;23.240;2024-02-28T13:38:18;7.22;;;3.50;;
6858;SDS011;3468;42.824;23.240;2024-02-28T13:40:45;9.35;;;3.90;;
6858;SDS011;3468;42.824;23.240;2024-02-28T13:43:12;11.73;;;4.60;;
6858;SDS011;3468;42.824;23.240;2024-02-28T13:45:39;7.00;;;3.72;;
6858;SDS011;3468;42.824;23.240;2024-02-28T13:48:16;8.27;;;4.05;;
6858;SDS011;3468;42.824;23.240;2024-02-28T13:50:44;6.75;;;3.78;;
6858;SDS011;3468;42.824;23.240;2024-02-28T13:53:11;10.20;;;3.97;;
6858;SDS011;3468;42.824;23.240;2024-02-28T13:55:38;9.73;;;4.05;;
6858;SDS011;3468;42.824;23.240;2024-02-28T13:58:05;13.32;;;4.60;;
6858;SDS011;3468;42.824;23.240;2024-02-28T14:00:33;11.57;;;5.43;;
6858;SDS011;3468;42.824;23.240;2024-02-28T14:03:00;10.30;;;4.85;;
6858;SDS011;3468;42.824;23.240;2024-02-28T14:05:28;9.68;;;4.35;;
6858;SDS011;3468;42.824;23.240;2024-02-28T14:07:55;12.50;;;4.80;;
6858;SDS011;3468;42.824;23.240;2024-02-28T14:10:22;10.30;;;4.27;;
6858;SDS011;3468;42.824;23.240;2024-02-28T14:12:49;6.70;;;4.57;;
6858;SDS011;3468;42.824;23.240;2024-02-28T14:15:17;7.47;;;4.03;;
6858;SDS011;3468;42.824;23.240;2024-02-28T14:17:44;9.75;;;4.78;;
6858;SDS011;3468;42.824;23.240;2024-02-28T14:20:11;14.17;;;4.80;;
6858;SDS011;3468;42.824;23.240;2024-02-28T14:22:40;8.33;;;5.20;;
6858;SDS011;3468;42.824;23.240;2024-02-28T14:25:09;10.77;;;4.68;;
6858;SDS011;3468;42.824;23.240;2024-02-28T14:27:37;11.07;;;4.47;;
6858;SDS011;3468;42.824;23.240;2024-02-28T14:30:04;12.65;;;4.40;;
6858;SDS011;3468;42.824;23.240;2024-02-28T14:32:33;9.30;;;4.25;;
6858;SDS011;3468;42.824;23.240;2024-02-28T14:35:01;9.70;;;4.18;;
6858;SDS011;3468;42.824;23.240;2024-02-28T14:37:28;10.77;;;4.85;;
6858;SDS011;3468;42.824;23.240;2024-02-28T14:39:56;7.30;;;4.05;;